sensor_id;sensor_type;location;lat;lon;timestamp;temperature;humidity
7129;DHT22;3606;52.930;8.644;2024-02-04T00:02:07;6.90;99.90
7129;DHT22;3606;52.930;8.644;2024-02-04T00:04:35;6.90;99.90
7129;DHT22;3606;52.930;8.644;2024-02-04T00:07:01;6.90;99.90
7129;DHT22;3606;52.930;8.644;2024-02-04T00:09:26;6.90;99.90
7129;DHT22;3606;52.930;8.644;2024-02-04T00:11:55;7.00;99.90
7129;DHT22;3606;52.930;8.644;2024-02-04T00:14:21;7.00;99.90
7129;DHT22;3606;52.930;8.644;2024-02-04T00:16:46;7.10;99.90
7129;DHT22;3606;52.930;8.644;2024-02-04T00:19:12;7.10;99.90
7129;DHT22;3606;52.930;8.644;2024-02-04T00:21:37;7.10;99.90
7129;DHT22;3606;52.930;8.644;2024-02-04T00:24:03;7.10;99.90
7129;DHT22;3606;52.930;8.644;2024-02-04T00:26:29;7.00;99.90
7129;DHT22;3606;52.930;8.644;2024-02-04T00:28:54;7.00;99.90
7129;DHT22;3606;52.930;8.644;2024-02-04T00:31:20;7.00;99.90
7129;DHT22;3606;52.930;8.644;2024-02-04T00:33:45;6.90;99.90
7129;DHT22;3606;52.930;8.644;2024-02-04T00:36:11;7.00;99.90
7129;DHT22;3606;52.930;8.644;2024-02-04T00:38:37;7.00;99.90
7129;DHT22;3606;52.930;8.644;2024-02-04T00:41:02;7.10;99.90
7129;DHT22;3606;52.930;8.644;2024-02-04T00:43:29;7.10;99.90
7129;DHT22;3606;52.930;8.644;2024-02-04T00:45:54;7.10;99.90
7129;DHT22;3606;52.930;8.644;2024-02-04T00:48:22;7.00;99.90
7129;DHT22;3606;52.930;8.644;2024-02-04T00:50:47;7.10;99.90
7129;DHT22;3606;52.930;8.644;2024-02-04T00:53:13;6.90;99.90
7129;DHT22;3606;52.930;8.644;2024-02-04T00:55:38;6.80;99.90
7129;DHT22;3606;52.930;8.644;2024-02-04T00:58:04;6.90;99.90
7129;DHT22;3606;52.930;8.644;2024-02-04T01:00:30;6.90;99.90
7129;DHT22;3606;52.930;8.644;2024-02-04T01:02:55;6.90;99.90
7129;DHT22;3606;52.930;8.644;2024-02-04T01:05:21;6.90;99.90
7129;DHT22;3606;52.930;8.644;2024-02-04T01:07:46;6.90;99.90
7129;DHT22;3606;52.930;8.644;2024-02-04T01:10:12;6.90;99.90
7129;DHT22;3606;52.930;8.644;2024-02-04T01:12:38;6.80;99.90
7129;DHT22;3606;52.930;8.644;2024-02-04T01:15:04;6.90;99.90
7129;DHT22;3606;52.930;8.644;2024-02-04T01:17:30;6.90;99.90
7129;DHT22;3606;52.930;8.644;2024-02-04T01:19:56;7.00;99.90
7129;DHT22;3606;52.930;8.644;2024-02-04T01:22:22;7.00;99.90
7129;DHT22;3606;52.930;8.644;2024-02-04T01:24:52;7.00;99.90
7129;DHT22;3606;52.930;8.644;2024-02-04T01:27:18;7.00;99.90
7129;DHT22;3606;52.930;8.644;2024-02-04T01:29:44;6.90;99.90
7129;DHT22;3606;52.930;8.644;2024-02-04T01:32:09;6.90;99.90
7129;DHT22;3606;52.930;8.644;2024-02-04T01:34:35;7.00;99.90
7129;DHT22;3606;52.930;8.644;2024-02-04T01:37:00;7.00;99.90
7129;DHT22;3606;52.930;8.644;2024-02-04T01:39:26;7.00;99.90
7129;DHT22;3606;52.930;8.644;2024-02-04T01:41:52;7.10;99.90
7129;DHT22;3606;52.930;8.644;2024-02-04T01:44:17;7.10;99.90
7129;DHT22;3606;52.930;8.644;2024-02-04T01:46:44;7.10;99.90
7129;DHT22;3606;52.930;8.644;2024-02-04T01:49:10;7.10;99.90
7129;DHT22;3606;52.930;8.644;2024-02-04T01:51:36;7.40;99.90
7129;DHT22;3606;52.930;8.644;2024-02-04T01:54:03;7.50;99.90
7129;DHT22;3606;52.930;8.644;2024-02-04T01:56:30;7.50;99.90
7129;DHT22;3606;52.930;8.644;2024-02-04T01:58:56;7.60;99.90
7129;DHT22;3606;52.930;8.644;2024-02-04T02:01:22;7.60;99.90
7129;DHT22;3606;52.930;8.644;2024-02-04T02:03:48;7.80;99.90
7129;DHT22;3606;52.930;8.644;2024-02-04T02:06:15;7.80;99.90
7129;DHT22;3606;52.930;8.644;2024-02-04T02:08:42;7.80;99.90
7129;DHT22;3606;52.930;8.644;2024-02-04T02:11:16;7.80;99.90
7129;DHT22;3606;52.930;8.644;2024-02-04T02:13:44;7.80;99.90
7129;DHT22;3606;52.930;8.644;2024-02-04T02:16:17;7.80;99.90
7129;DHT22;3606;52.930;8.644;2024-02-04T02:18:54;7.80;99.90
7129;DHT22;3606;52.930;8.644;2024-02-04T02:21:49;7.80;99.90
7129;DHT22;3606;52.930;8.644;2024-02-04T02:26:48;7.60;99.90
7129;DHT22;3606;52.930;8.644;2024-02-04T02:29:14;7.60;99.90
7129;DHT22;3606;52.930;8.644;2024-02-04T02:31:41;7.40;99.90
7129;DHT22;3606;52.930;8.644;2024-02-04T02:34:08;7.20;99.90
7129;DHT22;3606;52.930;8.644;2024-02-04T02:36:40;7.20;99.90
7129;DHT22;3606;52.930;8.644;2024-02-04T02:42:04;7.10;99.90
7129;DHT22;3606;52.930;8.644;2024-02-04T02:44:30;7.00;99.90
7129;DHT22;3606;52.930;8.644;2024-02-04T02:46:58;7.00;99.90
7129;DHT22;3606;52.930;8.644;2024-02-04T02:49:25;6.90;99.90
7129;DHT22;3606;52.930;8.644;2024-02-04T02:51:51;6.90;99.90
7129;DHT22;3606;52.930;8.644;2024-02-04T02:54:18;6.80;99.90
7129;DHT22;3606;52.930;8.644;2024-02-04T02:56:43;6.70;99.90
7129;DHT22;3606;52.930;8.644;2024-02-04T02:59:09;6.80;99.90
7129;DHT22;3606;52.930;8.644;2024-02-04T03:01:38;6.70;99.90
7129;DHT22;3606;52.930;8.644;2024-02-04T03:04:04;6.70;99.90
7129;DHT22;3606;52.930;8.644;2024-02-04T03:06:29;6.60;99.90
7129;DHT22;3606;52.930;8.644;2024-02-04T03:08:55;6.50;99.90
7129;DHT22;3606;52.930;8.644;2024-02-04T03:11:20;6.50;99.90
7129;DHT22;3606;52.930;8.644;2024-02-04T03:13:46;6.50;99.90
7129;DHT22;3606;52.930;8.644;2024-02-04T03:16:12;6.50;99.90
7129;DHT22;3606;52.930;8.644;2024-02-04T03:18:42;6.50;99.90
7129;DHT22;3606;52.930;8.644;2024-02-04T03:21:16;6.60;99.90
7129;DHT22;3606;52.930;8.644;2024-02-04T03:23:42;6.50;99.90
7129;DHT22;3606;52.930;8.644;2024-02-04T03:26:11;6.40;99.90
7129;DHT22;3606;52.930;8.644;2024-02-04T03:28:41;6.40;99.90
7129;DHT22;3606;52.930;8.644;2024-02-04T03:31:07;6.50;99.90
7129;DHT22;3606;52.930;8.644;2024-02-04T03:33:32;6.50;99.90
7129;DHT22;3606;52.930;8.644;2024-02-04T03:35:58;6.50;99.90
7129;DHT22;3606;52.930;8.644;2024-02-04T03:38:23;6.50;99.90
7129;DHT22;3606;52.930;8.644;2024-02-04T03:40:49;6.30;99.90
7129;DHT22;3606;52.930;8.644;2024-02-04T03:43:15;6.40;99.90
7129;DHT22;3606;52.930;8.644;2024-02-04T03:45:41;6.40;99.90
7129;DHT22;3606;52.930;8.644;2024-02-04T03:48:06;6.40;99.90
7129;DHT22;3606;52.930;8.644;2024-02-04T03:50:32;6.50;99.90
7129;DHT22;3606;52.930;8.644;2024-02-04T03:52:58;6.40;99.90
7129;DHT22;3606;52.930;8.644;2024-02-04T03:55:23;6.50;99.90
7129;DHT22;3606;52.930;8.644;2024-02-04T03:57:49;6.50;99.90
7129;DHT22;3606;52.930;8.644;2024-02-04T04:00:15;6.50;99.90
7129;DHT22;3606;52.930;8.644;2024-02-04T04:02:41;6.30;99.90
7129;DHT22;3606;52.930;8.644;2024-02-04T04:05:11;6.30;99.90
7129;DHT22;3606;52.930;8.644;2024-02-04T04:07:40;6.30;99.90
7129;DHT22;3606;52.930;8.644;2024-02-04T04:10:06;6.30;99.90
7129;DHT22;3606;52.930;8.644;2024-02-04T04:12:31;6.40;99.90
7129;DHT22;3606;52.930;8.644;2024-02-04T04:14:57;6.30;99.90
7129;DHT22;3606;52.930;8.644;2024-02-04T04:17:23;6.30;99.90
7129;DHT22;3606;52.930;8.644;2024-02-04T04:19:49;6.40;99.90
7129;DHT22;3606;52.930;8.644;2024-02-04T04:22:14;6.40;99.90
7129;DHT22;3606;52.930;8.644;2024-02-04T04:24:40;6.40;99.90
7129;DHT22;3606;52.930;8.644;2024-02-04T04:27:05;6.40;99.90
7129;DHT22;3606;52.930;8.644;2024-02-04T04:29:31;6.50;99.90
7129;DHT22;3606;52.930;8.644;2024-02-04T04:31:57;6.40;99.90
7129;DHT22;3606;52.930;8.644;2024-02-04T04:34:22;6.40;99.90
7129;DHT22;3606;52.930;8.644;2024-02-04T04:36:48;6.30;99.90
7129;DHT22;3606;52.930;8.644;2024-02-04T04:39:13;6.30;99.90
7129;DHT22;3606;52.930;8.644;2024-02-04T04:41:44;6.30;99.90
7129;DHT22;3606;52.930;8.644;2024-02-04T04:44:10;6.30;99.90
7129;DHT22;3606;52.930;8.644;2024-02-04T04:46:39;6.20;99.90
7129;DHT22;3606;52.930;8.644;2024-02-04T04:49:07;6.20;99.90
7129;DHT22;3606;52.930;8.644;2024-02-04T04:51:33;6.20;99.90
7129;DHT22;3606;52.930;8.644;2024-02-04T04:53:58;6.20;99.90
7129;DHT22;3606;52.930;8.644;2024-02-04T04:56:24;6.20;99.90
7129;DHT22;3606;52.930;8.644;2024-02-04T04:58:50;6.20;99.90
7129;DHT22;3606;52.930;8.644;2024-02-04T05:01:16;6.10;99.90
7129;DHT22;3606;52.930;8.644;2024-02-04T05:03:41;6.10;99.90
7129;DHT22;3606;52.930;8.644;2024-02-04T05:06:07;6.10;99.90
7129;DHT22;3606;52.930;8.644;2024-02-04T05:08:32;6.20;99.90
7129;DHT22;3606;52.930;8.644;2024-02-04T05:10:58;6.20;99.90
7129;DHT22;3606;52.930;8.644;2024-02-04T05:13:24;6.20;99.90
7129;DHT22;3606;52.930;8.644;2024-02-04T05:15:49;6.30;99.90
7129;DHT22;3606;52.930;8.644;2024-02-04T05:18:15;6.30;99.90
7129;DHT22;3606;52.930;8.644;2024-02-04T05:20:40;6.30;99.90
7129;DHT22;3606;52.930;8.644;2024-02-04T05:23:06;6.30;99.90
7129;DHT22;3606;52.930;8.644;2024-02-04T05:25:32;6.30;99.90
7129;DHT22;3606;52.930;8.644;2024-02-04T05:27:57;6.30;99.90
7129;DHT22;3606;52.930;8.644;2024-02-04T05:30:23;6.30;99.90
7129;DHT22;3606;52.930;8.644;2024-02-04T05:32:49;6.30;99.90
7129;DHT22;3606;52.930;8.644;2024-02-04T05:35:14;6.40;99.90
7129;DHT22;3606;52.930;8.644;2024-02-04T05:37:40;6.30;99.90
7129;DHT22;3606;52.930;8.644;2024-02-04T05:40:06;6.40;99.90
7129;DHT22;3606;52.930;8.644;2024-02-04T05:42:32;6.40;99.90
7129;DHT22;3606;52.930;8.644;2024-02-04T05:44:58;6.40;99.90
7129;DHT22;3606;52.930;8.644;2024-02-04T05:47:23;6.40;99.90
7129;DHT22;3606;52.930;8.644;2024-02-04T05:49:49;6.40;99.90
7129;DHT22;3606;52.930;8.644;2024-02-04T05:52:15;6.40;99.90
7129;DHT22;3606;52.930;8.644;2024-02-04T05:54:41;6.40;99.90
7129;DHT22;3606;52.930;8.644;2024-02-04T05:57:07;6.50;99.90
7129;DHT22;3606;52.930;8.644;2024-02-04T05:59:33;6.50;99.90
7129;DHT22;3606;52.930;8.644;2024-02-04T06:01:59;6.50;99.90
7129;DHT22;3606;52.930;8.644;2024-02-04T06:04:25;6.50;99.90
7129;DHT22;3606;52.930;8.644;2024-02-04T06:06:50;6.50;99.90
7129;DHT22;3606;52.930;8.644;2024-02-04T06:09:16;6.60;99.90
7129;DHT22;3606;52.930;8.644;2024-02-04T06:11:45;6.60;99.90
7129;DHT22;3606;52.930;8.644;2024-02-04T06:14:11;6.50;99.90
7129;DHT22;3606;52.930;8.644;2024-02-04T06:16:37;6.60;99.90
7129;DHT22;3606;52.930;8.644;2024-02-04T06:19:03;6.50;99.90
7129;DHT22;3606;52.930;8.644;2024-02-04T06:21:28;6.60;99.90
7129;DHT22;3606;52.930;8.644;2024-02-04T06:23:54;6.60;99.90
7129;DHT22;3606;52.930;8.644;2024-02-04T06:26:20;6.60;99.90
7129;DHT22;3606;52.930;8.644;2024-02-04T06:28:45;6.60;99.90
7129;DHT22;3606;52.930;8.644;2024-02-04T06:31:12;6.60;99.90
7129;DHT22;3606;52.930;8.644;2024-02-04T06:33:38;6.70;99.90
7129;DHT22;3606;52.930;8.644;2024-02-04T06:36:09;6.70;99.90
7129;DHT22;3606;52.930;8.644;2024-02-04T06:38:35;6.70;99.90
7129;DHT22;3606;52.930;8.644;2024-02-04T06:41:01;6.80;99.90
7129;DHT22;3606;52.930;8.644;2024-02-04T06:43:27;6.80;99.90
7129;DHT22;3606;52.930;8.644;2024-02-04T06:45:52;6.80;99.90
7129;DHT22;3606;52.930;8.644;2024-02-04T06:48:21;6.80;99.90
7129;DHT22;3606;52.930;8.644;2024-02-04T06:50:46;6.80;99.90
7129;DHT22;3606;52.930;8.644;2024-02-04T06:53:13;6.80;99.90
7129;DHT22;3606;52.930;8.644;2024-02-04T06:55:39;6.80;99.90
7129;DHT22;3606;52.930;8.644;2024-02-04T06:58:05;6.90;99.90
7129;DHT22;3606;52.930;8.644;2024-02-04T07:00:30;6.90;99.90
7129;DHT22;3606;52.930;8.644;2024-02-04T07:02:56;6.90;99.90
7129;DHT22;3606;52.930;8.644;2024-02-04T07:05:22;6.90;99.90
7129;DHT22;3606;52.930;8.644;2024-02-04T07:07:48;7.00;99.90
7129;DHT22;3606;52.930;8.644;2024-02-04T07:10:15;7.00;99.90
7129;DHT22;3606;52.930;8.644;2024-02-04T07:12:41;7.00;99.90
7129;DHT22;3606;52.930;8.644;2024-02-04T07:15:06;7.00;99.90
7129;DHT22;3606;52.930;8.644;2024-02-04T07:17:34;7.00;99.90
7129;DHT22;3606;52.930;8.644;2024-02-04T07:20:00;7.10;99.90
7129;DHT22;3606;52.930;8.644;2024-02-04T07:22:26;7.00;99.90
7129;DHT22;3606;52.930;8.644;2024-02-04T07:24:54;7.00;99.90
7129;DHT22;3606;52.930;8.644;2024-02-04T07:27:20;7.10;99.90
7129;DHT22;3606;52.930;8.644;2024-02-04T07:29:46;7.10;99.90
7129;DHT22;3606;52.930;8.644;2024-02-04T07:32:13;7.00;99.90
7129;DHT22;3606;52.930;8.644;2024-02-04T07:34:38;7.00;99.90
7129;DHT22;3606;52.930;8.644;2024-02-04T07:37:04;7.10;99.90
7129;DHT22;3606;52.930;8.644;2024-02-04T07:39:30;7.10;99.90
7129;DHT22;3606;52.930;8.644;2024-02-04T07:41:56;7.10;99.90
7129;DHT22;3606;52.930;8.644;2024-02-04T07:44:26;7.10;99.90
7129;DHT22;3606;52.930;8.644;2024-02-04T07:46:52;7.10;99.90
7129;DHT22;3606;52.930;8.644;2024-02-04T07:49:17;7.20;99.90
7129;DHT22;3606;52.930;8.644;2024-02-04T07:51:43;7.20;99.90
7129;DHT22;3606;52.930;8.644;2024-02-04T07:54:08;7.20;99.90
7129;DHT22;3606;52.930;8.644;2024-02-04T07:56:34;7.20;99.90
7129;DHT22;3606;52.930;8.644;2024-02-04T07:59:00;7.10;99.90
7129;DHT22;3606;52.930;8.644;2024-02-04T08:01:25;7.20;99.90
7129;DHT22;3606;52.930;8.644;2024-02-04T08:03:51;7.20;99.90
7129;DHT22;3606;52.930;8.644;2024-02-04T08:06:16;7.30;99.90
7129;DHT22;3606;52.930;8.644;2024-02-04T08:08:42;7.20;99.90
7129;DHT22;3606;52.930;8.644;2024-02-04T08:11:10;7.20;99.90
7129;DHT22;3606;52.930;8.644;2024-02-04T08:13:35;7.20;99.90
7129;DHT22;3606;52.930;8.644;2024-02-04T08:16:01;7.30;99.90
7129;DHT22;3606;52.930;8.644;2024-02-04T08:18:26;7.40;99.90
7129;DHT22;3606;52.930;8.644;2024-02-04T08:20:52;7.40;99.90
7129;DHT22;3606;52.930;8.644;2024-02-04T08:23:18;7.50;99.90
7129;DHT22;3606;52.930;8.644;2024-02-04T08:25:44;7.50;99.90
7129;DHT22;3606;52.930;8.644;2024-02-04T08:28:10;7.50;99.90
7129;DHT22;3606;52.930;8.644;2024-02-04T08:30:35;7.50;99.90
7129;DHT22;3606;52.930;8.644;2024-02-04T08:33:01;7.50;99.90
7129;DHT22;3606;52.930;8.644;2024-02-04T08:35:27;7.50;99.90
7129;DHT22;3606;52.930;8.644;2024-02-04T08:37:52;7.50;99.90
7129;DHT22;3606;52.930;8.644;2024-02-04T08:40:18;7.60;99.90
7129;DHT22;3606;52.930;8.644;2024-02-04T08:42:43;7.50;99.90
7129;DHT22;3606;52.930;8.644;2024-02-04T08:45:09;7.50;99.90
7129;DHT22;3606;52.930;8.644;2024-02-04T08:47:35;7.60;99.90
7129;DHT22;3606;52.930;8.644;2024-02-04T08:50:01;7.60;99.90
7129;DHT22;3606;52.930;8.644;2024-02-04T08:52:26;7.60;99.90
7129;DHT22;3606;52.930;8.644;2024-02-04T08:54:52;7.70;99.90
7129;DHT22;3606;52.930;8.644;2024-02-04T08:57:17;7.70;99.90
7129;DHT22;3606;52.930;8.644;2024-02-04T08:59:43;7.80;99.90
7129;DHT22;3606;52.930;8.644;2024-02-04T09:02:09;7.70;99.90
7129;DHT22;3606;52.930;8.644;2024-02-04T09:04:34;7.80;99.90
7129;DHT22;3606;52.930;8.644;2024-02-04T09:07:06;7.80;99.90
7129;DHT22;3606;52.930;8.644;2024-02-04T09:09:32;7.70;99.90
7129;DHT22;3606;52.930;8.644;2024-02-04T09:11:57;7.80;99.90
7129;DHT22;3606;52.930;8.644;2024-02-04T09:14:23;7.80;99.90
7129;DHT22;3606;52.930;8.644;2024-02-04T09:16:49;7.80;99.90
7129;DHT22;3606;52.930;8.644;2024-02-04T09:19:14;7.80;99.90
7129;DHT22;3606;52.930;8.644;2024-02-04T09:21:40;7.90;99.90
7129;DHT22;3606;52.930;8.644;2024-02-04T09:24:05;7.90;99.90
7129;DHT22;3606;52.930;8.644;2024-02-04T09:26:31;7.90;99.90
7129;DHT22;3606;52.930;8.644;2024-02-04T09:28:57;7.90;99.90
7129;DHT22;3606;52.930;8.644;2024-02-04T09:31:22;7.90;99.90
7129;DHT22;3606;52.930;8.644;2024-02-04T09:33:48;7.90;99.90
7129;DHT22;3606;52.930;8.644;2024-02-04T09:36:13;8.00;99.90
7129;DHT22;3606;52.930;8.644;2024-02-04T09:38:40;8.00;99.90
7129;DHT22;3606;52.930;8.644;2024-02-04T09:41:05;8.00;99.90
7129;DHT22;3606;52.930;8.644;2024-02-04T09:43:32;8.10;99.90
7129;DHT22;3606;52.930;8.644;2024-02-04T09:45:59;8.10;99.90
7129;DHT22;3606;52.930;8.644;2024-02-04T09:48:25;8.20;99.90
7129;DHT22;3606;52.930;8.644;2024-02-04T09:50:52;8.30;99.90
7129;DHT22;3606;52.930;8.644;2024-02-04T09:53:21;8.30;99.90
7129;DHT22;3606;52.930;8.644;2024-02-04T09:55:52;8.30;99.90
7129;DHT22;3606;52.930;8.644;2024-02-04T09:58:20;8.30;99.90
7129;DHT22;3606;52.930;8.644;2024-02-04T10:00:47;8.30;99.90
7129;DHT22;3606;52.930;8.644;2024-02-04T10:03:13;8.40;99.90
7129;DHT22;3606;52.930;8.644;2024-02-04T10:05:39;8.40;99.90
7129;DHT22;3606;52.930;8.644;2024-02-04T10:08:05;8.60;99.90
7129;DHT22;3606;52.930;8.644;2024-02-04T10:10:30;8.70;99.90
7129;DHT22;3606;52.930;8.644;2024-02-04T10:12:57;8.70;99.90
7129;DHT22;3606;52.930;8.644;2024-02-04T10:15:23;8.70;99.90
7129;DHT22;3606;52.930;8.644;2024-02-04T10:17:49;8.90;99.90
7129;DHT22;3606;52.930;8.644;2024-02-04T10:20:15;9.10;99.90
7129;DHT22;3606;52.930;8.644;2024-02-04T10:22:40;9.20;99.90
7129;DHT22;3606;52.930;8.644;2024-02-04T10:25:10;9.10;99.90
7129;DHT22;3606;52.930;8.644;2024-02-04T10:27:40;9.20;99.90
7129;DHT22;3606;52.930;8.644;2024-02-04T10:30:06;9.40;99.90
7129;DHT22;3606;52.930;8.644;2024-02-04T10:32:32;9.50;99.90
7129;DHT22;3606;52.930;8.644;2024-02-04T10:34:59;9.60;99.90
7129;DHT22;3606;52.930;8.644;2024-02-04T10:37:26;9.60;99.90
7129;DHT22;3606;52.930;8.644;2024-02-04T10:39:52;9.70;99.90
7129;DHT22;3606;52.930;8.644;2024-02-04T10:42:23;9.70;99.90
7129;DHT22;3606;52.930;8.644;2024-02-04T10:44:49;9.60;99.90
7129;DHT22;3606;52.930;8.644;2024-02-04T10:47:22;9.60;99.90
7129;DHT22;3606;52.930;8.644;2024-02-04T10:49:51;9.60;99.90
7129;DHT22;3606;52.930;8.644;2024-02-04T10:52:18;9.60;99.90
7129;DHT22;3606;52.930;8.644;2024-02-04T10:54:44;9.50;99.90
7129;DHT22;3606;52.930;8.644;2024-02-04T10:57:13;9.50;99.90
7129;DHT22;3606;52.930;8.644;2024-02-04T10:59:42;9.60;1.00
7129;DHT22;3606;52.930;8.644;2024-02-04T11:02:10;9.80;99.90
7129;DHT22;3606;52.930;8.644;2024-02-04T11:04:36;10.10;99.90
7129;DHT22;3606;52.930;8.644;2024-02-04T11:07:04;10.10;99.90
7129;DHT22;3606;52.930;8.644;2024-02-04T11:09:30;10.10;99.90
7129;DHT22;3606;52.930;8.644;2024-02-04T11:11:58;10.00;99.90
7129;DHT22;3606;52.930;8.644;2024-02-04T11:14:27;9.90;99.90
7129;DHT22;3606;52.930;8.644;2024-02-04T11:17:12;9.90;99.90
7129;DHT22;3606;52.930;8.644;2024-02-04T11:20:28;10.00;99.90
7129;DHT22;3606;52.930;8.644;2024-02-04T11:27:48;10.00;99.90
7129;DHT22;3606;52.930;8.644;2024-02-04T11:30:15;10.00;99.90
7129;DHT22;3606;52.930;8.644;2024-02-04T11:32:41;10.20;99.90
7129;DHT22;3606;52.930;8.644;2024-02-04T11:35:07;10.20;99.90
7129;DHT22;3606;52.930;8.644;2024-02-04T11:37:34;10.20;99.90
7129;DHT22;3606;52.930;8.644;2024-02-04T11:39:59;10.20;99.90
7129;DHT22;3606;52.930;8.644;2024-02-04T11:42:25;10.00;99.90
7129;DHT22;3606;52.930;8.644;2024-02-04T11:45:09;9.90;99.90
7129;DHT22;3606;52.930;8.644;2024-02-04T11:47:37;9.80;99.90
7129;DHT22;3606;52.930;8.644;2024-02-04T11:50:02;9.70;99.90
7129;DHT22;3606;52.930;8.644;2024-02-04T11:52:29;9.70;99.90
7129;DHT22;3606;52.930;8.644;2024-02-04T11:54:55;9.80;99.90
7129;DHT22;3606;52.930;8.644;2024-02-04T11:57:21;9.90;99.90
7129;DHT22;3606;52.930;8.644;2024-02-04T11:59:47;9.90;99.90
7129;DHT22;3606;52.930;8.644;2024-02-04T12:02:16;9.80;99.90
7129;DHT22;3606;52.930;8.644;2024-02-04T12:04:47;9.80;99.90
7129;DHT22;3606;52.930;8.644;2024-02-04T12:07:14;9.80;99.90
7129;DHT22;3606;52.930;8.644;2024-02-04T12:09:40;9.70;99.90
7129;DHT22;3606;52.930;8.644;2024-02-04T12:12:06;9.70;99.90
7129;DHT22;3606;52.930;8.644;2024-02-04T12:14:37;9.70;99.90
7129;DHT22;3606;52.930;8.644;2024-02-04T12:17:09;9.80;99.90
7129;DHT22;3606;52.930;8.644;2024-02-04T12:19:35;9.70;99.90
7129;DHT22;3606;52.930;8.644;2024-02-04T12:22:01;9.70;99.90
7129;DHT22;3606;52.930;8.644;2024-02-04T12:24:27;9.70;99.90
7129;DHT22;3606;52.930;8.644;2024-02-04T12:26:53;9.70;99.90
7129;DHT22;3606;52.930;8.644;2024-02-04T12:29:18;9.70;99.90
7129;DHT22;3606;52.930;8.644;2024-02-04T12:31:44;9.60;99.90
7129;DHT22;3606;52.930;8.644;2024-02-04T12:34:12;9.60;99.90
7129;DHT22;3606;52.930;8.644;2024-02-04T12:36:38;9.60;99.90
7129;DHT22;3606;52.930;8.644;2024-02-04T12:39:03;9.60;99.90
7129;DHT22;3606;52.930;8.644;2024-02-04T12:41:29;9.60;99.90
7129;DHT22;3606;52.930;8.644;2024-02-04T12:43:57;9.60;99.90
7129;DHT22;3606;52.930;8.644;2024-02-04T12:46:23;9.60;99.90
7129;DHT22;3606;52.930;8.644;2024-02-04T12:48:53;9.60;99.90
7129;DHT22;3606;52.930;8.644;2024-02-04T12:51:28;9.60;99.90
7129;DHT22;3606;52.930;8.644;2024-02-04T12:59:05;9.40;99.90
7129;DHT22;3606;52.930;8.644;2024-02-04T13:01:30;9.40;99.90
7129;DHT22;3606;52.930;8.644;2024-02-04T13:03:56;9.40;99.90
7129;DHT22;3606;52.930;8.644;2024-02-04T13:06:22;9.40;99.90
7129;DHT22;3606;52.930;8.644;2024-02-04T13:08:48;9.30;99.90
7129;DHT22;3606;52.930;8.644;2024-02-04T13:11:19;9.30;99.90
7129;DHT22;3606;52.930;8.644;2024-02-04T13:13:45;9.30;99.90
7129;DHT22;3606;52.930;8.644;2024-02-04T13:16:11;9.30;99.90
7129;DHT22;3606;52.930;8.644;2024-02-04T13:18:36;9.30;99.90
7129;DHT22;3606;52.930;8.644;2024-02-04T13:21:02;9.30;99.90
7129;DHT22;3606;52.930;8.644;2024-02-04T13:23:28;9.20;99.90
7129;DHT22;3606;52.930;8.644;2024-02-04T13:25:53;9.20;99.90
7129;DHT22;3606;52.930;8.644;2024-02-04T13:28:19;9.20;99.90
7129;DHT22;3606;52.930;8.644;2024-02-04T13:30:45;9.20;99.90
7129;DHT22;3606;52.930;8.644;2024-02-04T13:33:10;9.30;99.90
7129;DHT22;3606;52.930;8.644;2024-02-04T13:35:36;9.30;99.90
7129;DHT22;3606;52.930;8.644;2024-02-04T13:38:01;9.20;99.90
7129;DHT22;3606;52.930;8.644;2024-02-04T13:40:27;9.20;99.90
7129;DHT22;3606;52.930;8.644;2024-02-04T13:42:53;9.30;99.90
7129;DHT22;3606;52.930;8.644;2024-02-04T13:45:19;9.30;99.90
7129;DHT22;3606;52.930;8.644;2024-02-04T13:47:45;9.30;99.90
7129;DHT22;3606;52.930;8.644;2024-02-04T13:50:11;9.30;99.90
7129;DHT22;3606;52.930;8.644;2024-02-04T13:52:37;9.30;99.90
7129;DHT22;3606;52.930;8.644;2024-02-04T13:55:04;9.30;99.90
7129;DHT22;3606;52.930;8.644;2024-02-04T13:57:33;9.30;99.90
7129;DHT22;3606;52.930;8.644;2024-02-04T13:59:59;9.30;99.90
7129;DHT22;3606;52.930;8.644;2024-02-04T14:02:25;9.30;99.90
7129;DHT22;3606;52.930;8.644;2024-02-04T14:04:52;9.30;99.90
7129;DHT22;3606;52.930;8.644;2024-02-04T14:07:18;9.30;99.90
7129;DHT22;3606;52.930;8.644;2024-02-04T14:09:44;9.20;99.90
7129;DHT22;3606;52.930;8.644;2024-02-04T14:12:09;9.20;99.90
7129;DHT22;3606;52.930;8.644;2024-02-04T14:14:37;9.20;99.90
7129;DHT22;3606;52.930;8.644;2024-02-04T14:17:02;9.20;99.90
7129;DHT22;3606;52.930;8.644;2024-02-04T14:19:28;9.20;99.90
7129;DHT22;3606;52.930;8.644;2024-02-04T14:21:54;9.20;99.90
7129;DHT22;3606;52.930;8.644;2024-02-04T14:24:20;9.10;99.90
7129;DHT22;3606;52.930;8.644;2024-02-04T14:26:45;9.10;99.90
7129;DHT22;3606;52.930;8.644;2024-02-04T14:29:11;9.00;99.90
7129;DHT22;3606;52.930;8.644;2024-02-04T14:31:37;9.00;99.90
7129;DHT22;3606;52.930;8.644;2024-02-04T14:34:02;8.90;99.90
7129;DHT22;3606;52.930;8.644;2024-02-04T14:36:28;8.80;99.90
7129;DHT22;3606;52.930;8.644;2024-02-04T14:38:54;8.80;99.90
7129;DHT22;3606;52.930;8.644;2024-02-04T14:41:19;8.80;99.90
7129;DHT22;3606;52.930;8.644;2024-02-04T14:43:45;8.80;99.90
7129;DHT22;3606;52.930;8.644;2024-02-04T14:46:11;8.80;99.90
7129;DHT22;3606;52.930;8.644;2024-02-04T14:48:36;8.80;99.90
7129;DHT22;3606;52.930;8.644;2024-02-04T14:51:05;8.80;99.90
7129;DHT22;3606;52.930;8.644;2024-02-04T14:53:31;8.80;99.90
7129;DHT22;3606;52.930;8.644;2024-02-04T14:55:56;8.90;99.90
7129;DHT22;3606;52.930;8.644;2024-02-04T14:58:23;8.90;99.90
7129;DHT22;3606;52.930;8.644;2024-02-04T15:00:48;8.90;99.90
7129;DHT22;3606;52.930;8.644;2024-02-04T15:03:14;8.90;99.90
7129;DHT22;3606;52.930;8.644;2024-02-04T15:05:40;8.90;99.90
7129;DHT22;3606;52.930;8.644;2024-02-04T15:08:07;8.90;99.90
7129;DHT22;3606;52.930;8.644;2024-02-04T15:10:32;9.00;99.90
7129;DHT22;3606;52.930;8.644;2024-02-04T15:12:58;8.90;99.90
7129;DHT22;3606;52.930;8.644;2024-02-04T15:15:24;8.90;99.90
7129;DHT22;3606;52.930;8.644;2024-02-04T15:17:50;8.90;99.90
7129;DHT22;3606;52.930;8.644;2024-02-04T15:20:16;8.90;99.90
7129;DHT22;3606;52.930;8.644;2024-02-04T15:22:43;8.90;99.90
7129;DHT22;3606;52.930;8.644;2024-02-04T15:25:09;8.90;99.90
7129;DHT22;3606;52.930;8.644;2024-02-04T15:27:36;8.80;99.90
7129;DHT22;3606;52.930;8.644;2024-02-04T15:30:02;8.70;99.90
7129;DHT22;3606;52.930;8.644;2024-02-04T15:32:28;8.70;99.90
7129;DHT22;3606;52.930;8.644;2024-02-04T15:34:54;8.60;99.90
7129;DHT22;3606;52.930;8.644;2024-02-04T15:37:20;8.60;99.90
7129;DHT22;3606;52.930;8.644;2024-02-04T15:39:46;8.60;99.90
7129;DHT22;3606;52.930;8.644;2024-02-04T15:42:12;8.50;99.90
7129;DHT22;3606;52.930;8.644;2024-02-04T15:44:38;8.50;99.90
7129;DHT22;3606;52.930;8.644;2024-02-04T15:47:07;8.50;99.90
7129;DHT22;3606;52.930;8.644;2024-02-04T15:49:40;8.50;99.90
7129;DHT22;3606;52.930;8.644;2024-02-04T15:52:06;8.50;99.90
7129;DHT22;3606;52.930;8.644;2024-02-04T15:54:32;8.40;99.90
7129;DHT22;3606;52.930;8.644;2024-02-04T15:57:06;8.40;99.90
7129;DHT22;3606;52.930;8.644;2024-02-04T15:59:52;8.40;99.90
7129;DHT22;3606;52.930;8.644;2024-02-04T16:02:21;8.40;99.90
7129;DHT22;3606;52.930;8.644;2024-02-04T16:04:47;8.30;99.90
7129;DHT22;3606;52.930;8.644;2024-02-04T16:07:16;8.30;99.90
7129;DHT22;3606;52.930;8.644;2024-02-04T16:09:44;8.30;99.90
7129;DHT22;3606;52.930;8.644;2024-02-04T16:12:20;8.20;99.90
7129;DHT22;3606;52.930;8.644;2024-02-04T16:14:48;8.10;99.90
7129;DHT22;3606;52.930;8.644;2024-02-04T16:17:16;8.10;99.90
7129;DHT22;3606;52.930;8.644;2024-02-04T16:19:46;8.00;99.90
7129;DHT22;3606;52.930;8.644;2024-02-04T16:22:13;8.00;99.90
7129;DHT22;3606;52.930;8.644;2024-02-04T16:24:40;8.00;99.90
7129;DHT22;3606;52.930;8.644;2024-02-04T16:27:06;8.00;99.90
7129;DHT22;3606;52.930;8.644;2024-02-04T16:29:32;7.90;99.90